Bow Pilot — S6EN — position and weather

sailwx.info

Track history (hours):
 
Tides and Currents Weather Stations Pressure Air Temp Water Temp Dewpoint Dewpoint Depression Visibility Wind Speed Wind Dir Waves Ship Positions

Bow Pilot

Last reported at 2015-Jan-28 19:31 UTC. Time now 2015-Jan-28 20:17 UTC.
Position N 51°55' E 004°13'.

Length 104 m; draft 6.2 m.

Type: Tanker. MMSI: 564978000.

Date/timePositionNaut miles runAvg speedWind from/ knotsBaromVisibWave heightAir tempDewpointWater temp
2015-Jan-28 19:31N 51°55' E 004°13'0 0.0
2015-Jan-28 18:28N 51°55' E 004°13'0 0.0
2015-Jan-28 17:31N 51°55' E 004°13'0 0.0
2015-Jan-28 16:31N 51°55' E 004°13'0 0.0
2015-Jan-28 15:25N 51°55' E 004°13'0 0.0
2015-Jan-28 14:28N 51°55' E 004°13'0 0.0
2015-Jan-28 13:28N 51°55' E 004°13'0 0.0
2015-Jan-28 12:28N 51°55' E 004°13'0 0.0
2015-Jan-28 11:31N 51°55' E 004°13'0 0.0
2015-Jan-28 10:28N 51°55' E 004°13'0 0.0
2015-Jan-28 09:31N 51°55' E 004°13'0 0.0
2015-Jan-28 08:31N 51°55' E 004°13'0 0.0
2015-Jan-28 07:28N 51°55' E 004°13'0 0.0
2015-Jan-28 06:31N 51°55' E 004°13'0 0.0
2015-Jan-28 05:28N 51°55' E 004°13'0 0.0
2015-Jan-28 04:31N 51°55' E 004°13'0 0.0
2015-Jan-28 03:28N 51°55' E 004°13'0 0.0
2015-Jan-28 02:25N 51°55' E 004°13'0 0.0
2015-Jan-28 01:28N 51°55' E 004°13'0 0.0
2015-Jan-28 00:31N 51°55' E 004°13'0 0.0
2015-Jan-27 23:25N 51°55' E 004°13'0 0.0
2015-Jan-27 22:31N 51°55' E 004°13'0 0.0
2015-Jan-27 21:31N 51°55' E 004°13'0 0.0
2015-Jan-27 20:31N 51°55' E 004°13'0 0.2
2015-Jan-27 19:31N 51°55' E 004°13'0 0.0
2015-Jan-27 18:33N 51°55' E 004°13'8 8.3
2015-Jan-27 17:33N 51°60' E 004°02'6 0.2
2015-Jan-26 12:07N 52°02' E 003°54'611.3
2015-Jan-26 11:33N 51°60' E 004°03'1111.0
2015-Jan-26 10:33N 51°53' E 004°17'0 0.4
2015-Jan-26 09:32N 51°53' E 004°17'0 0.0
2015-Jan-26 08:23N 51°53' E 004°17'0 0.0
2015-Jan-26 07:32N 51°53' E 004°17'0 0.0
2015-Jan-26 06:32N 51°53' E 004°17'0 0.0
2015-Jan-26 05:32N 51°53' E 004°17'0 0.0
2015-Jan-26 04:29N 51°53' E 004°17'0 0.0
2015-Jan-26 03:32N 51°53' E 004°17'0 0.0
2015-Jan-26 02:32N 51°53' E 004°17'0 0.0
2015-Jan-26 01:32N 51°53' E 004°17'0 0.0
2015-Jan-26 00:29N 51°53' E 004°17'0 0.0
2015-Jan-25 23:32N 51°53' E 004°17'0 0.0
2015-Jan-25 22:29N 51°53' E 004°17'0 0.0
2015-Jan-25 21:29N 51°53' E 004°17'0 0.0
2015-Jan-25 20:29N 51°53' E 004°17'0 0.0
2015-Jan-25 19:32N 51°53' E 004°17'0 0.0
2015-Jan-25 18:29N 51°53' E 004°17'0 0.0
2015-Jan-25 17:32N 51°53' E 004°17'0 0.0
2015-Jan-25 16:32N 51°53' E 004°17'0 0.0
2015-Jan-25 15:32N 51°53' E 004°17'0 0.0
2015-Jan-25 14:32N 51°53' E 004°17'0 0.0
2015-Jan-25 13:32N 51°53' E 004°17'0 0.0
2015-Jan-25 12:32N 51°53' E 004°17'0 0.0
2015-Jan-25 11:32N 51°53' E 004°17'0 0.0
2015-Jan-25 10:26N 51°53' E 004°17'0 0.0
2015-Jan-25 09:32N 51°53' E 004°17'0 0.0
2015-Jan-25 08:32N 51°53' E 004°17'0 0.0
2015-Jan-25 07:29N 51°53' E 004°17'1 1.3
2015-Jan-25 06:33N 51°54' E 004°18'1212.3
2015-Jan-25 05:33N 51°60' E 004°01'7211.9
2015-Jan-24 23:32N 51°30' E 002°16'1110.3
2015-Jan-24 22:26N 51°20' E 002°08'9 9.8
2015-Jan-24 21:33N 51°13' E 002°01'1110.6
2015-Jan-24 20:33N 51°07' E 001°47'1110.8
2015-Jan-24 19:33N 50°59' E 001°35'  
2015-Jan-21 07:05N 38°47' W 009°56'15 9.6
2015-Jan-21 05:33N 38°32' W 009°54'262 8.9
2015-Jan-20 00:08N 35°59' W 005°26'5 9.3
2015-Jan-19 23:33N 35°58' W 005°20'5 4.3
2015-Jan-19 22:30N 35°54' W 005°19'0 0.0
2015-Jan-19 21:33N 35°54' W 005°19'0 0.0
2015-Jan-19 20:33N 35°54' W 005°19'0 0.0
2015-Jan-19 19:33N 35°54' W 005°19'0 0.0
2015-Jan-19 18:33N 35°54' W 005°19'1 1.4
2015-Jan-19 17:33N 35°55' W 005°19'  
Track history (hours):
 
Tides and Currents Weather Stations Pressure Air Temp Water Temp Dewpoint Dewpoint Depression Visibility Wind Speed Wind Dir Waves Ship Positions

Bow Pilot

Last reported at 2015-Jan-28 19:31 UTC. Time now 2015-Jan-28 20:17 UTC.
Position N 51°55' E 004°13'.

Length 104 m; draft 6.2 m.

Type: Tanker. MMSI: 564978000.

Date/timePositionNaut miles runAvg speedWind from/ knotsBaromVisibWave heightAir tempDewpointWater temp
2015-Jan-28 19:31N 51°55' E 004°13'0 0.0
2015-Jan-28 18:28N 51°55' E 004°13'0 0.0
2015-Jan-28 17:31N 51°55' E 004°13'0 0.0
2015-Jan-28 16:31N 51°55' E 004°13'0 0.0
2015-Jan-28 15:25N 51°55' E 004°13'0 0.0
2015-Jan-28 14:28N 51°55' E 004°13'0 0.0
2015-Jan-28 13:28N 51°55' E 004°13'0 0.0
2015-Jan-28 12:28N 51°55' E 004°13'0 0.0
2015-Jan-28 11:31N 51°55' E 004°13'0 0.0
2015-Jan-28 10:28N 51°55' E 004°13'0 0.0
2015-Jan-28 09:31N 51°55' E 004°13'0 0.0
2015-Jan-28 08:31N 51°55' E 004°13'0 0.0
2015-Jan-28 07:28N 51°55' E 004°13'0 0.0
2015-Jan-28 06:31N 51°55' E 004°13'0 0.0
2015-Jan-28 05:28N 51°55' E 004°13'0 0.0
2015-Jan-28 04:31N 51°55' E 004°13'0 0.0
2015-Jan-28 03:28N 51°55' E 004°13'0 0.0
2015-Jan-28 02:25N 51°55' E 004°13'0 0.0
2015-Jan-28 01:28N 51°55' E 004°13'0 0.0
2015-Jan-28 00:31N 51°55' E 004°13'0 0.0
2015-Jan-27 23:25N 51°55' E 004°13'0 0.0
2015-Jan-27 22:31N 51°55' E 004°13'0 0.0
2015-Jan-27 21:31N 51°55' E 004°13'0 0.0
2015-Jan-27 20:31N 51°55' E 004°13'0 0.2
2015-Jan-27 19:31N 51°55' E 004°13'0 0.0
2015-Jan-27 18:33N 51°55' E 004°13'8 8.3
2015-Jan-27 17:33N 51°60' E 004°02'6 0.2
2015-Jan-26 12:07N 52°02' E 003°54'611.3
2015-Jan-26 11:33N 51°60' E 004°03'1111.0
2015-Jan-26 10:33N 51°53' E 004°17'0 0.4
2015-Jan-26 09:32N 51°53' E 004°17'0 0.0
2015-Jan-26 08:23N 51°53' E 004°17'0 0.0
2015-Jan-26 07:32N 51°53' E 004°17'0 0.0
2015-Jan-26 06:32N 51°53' E 004°17'0 0.0
2015-Jan-26 05:32N 51°53' E 004°17'0 0.0
2015-Jan-26 04:29N 51°53' E 004°17'0 0.0
2015-Jan-26 03:32N 51°53' E 004°17'0 0.0
2015-Jan-26 02:32N 51°53' E 004°17'0 0.0
2015-Jan-26 01:32N 51°53' E 004°17'0 0.0
2015-Jan-26 00:29N 51°53' E 004°17'0 0.0
2015-Jan-25 23:32N 51°53' E 004°17'0 0.0
2015-Jan-25 22:29N 51°53' E 004°17'0 0.0
2015-Jan-25 21:29N 51°53' E 004°17'0 0.0
2015-Jan-25 20:29N 51°53' E 004°17'0 0.0
2015-Jan-25 19:32N 51°53' E 004°17'0 0.0
2015-Jan-25 18:29N 51°53' E 004°17'0 0.0
2015-Jan-25 17:32N 51°53' E 004°17'0 0.0
2015-Jan-25 16:32N 51°53' E 004°17'0 0.0
2015-Jan-25 15:32N 51°53' E 004°17'0 0.0
2015-Jan-25 14:32N 51°53' E 004°17'0 0.0
2015-Jan-25 13:32N 51°53' E 004°17'0 0.0
2015-Jan-25 12:32N 51°53' E 004°17'0 0.0
2015-Jan-25 11:32N 51°53' E 004°17'0 0.0
2015-Jan-25 10:26N 51°53' E 004°17'0 0.0
2015-Jan-25 09:32N 51°53' E 004°17'0 0.0
2015-Jan-25 08:32N 51°53' E 004°17'0 0.0
2015-Jan-25 07:29N 51°53' E 004°17'1 1.3
2015-Jan-25 06:33N 51°54' E 004°18'1212.3
2015-Jan-25 05:33N 51°60' E 004°01'7211.9
2015-Jan-24 23:32N 51°30' E 002°16'1110.3
2015-Jan-24 22:26N 51°20' E 002°08'9 9.8
2015-Jan-24 21:33N 51°13' E 002°01'1110.6
2015-Jan-24 20:33N 51°07' E 001°47'1110.8
2015-Jan-24 19:33N 50°59' E 001°35'  
2015-Jan-21 07:05N 38°47' W 009°56'15 9.6
2015-Jan-21 05:33N 38°32' W 009°54'262 8.9
2015-Jan-20 00:08N 35°59' W 005°26'5 9.3
2015-Jan-19 23:33N 35°58' W 005°20'5 4.3
2015-Jan-19 22:30N 35°54' W 005°19'0 0.0
2015-Jan-19 21:33N 35°54' W 005°19'0 0.0
2015-Jan-19 20:33N 35°54' W 005°19'0 0.0
2015-Jan-19 19:33N 35°54' W 005°19'0 0.0
2015-Jan-19 18:33N 35°54' W 005°19'1 1.4
2015-Jan-19 17:33N 35°55' W 005°19'  

Dump ship's entire track history